createdAt,value
2023-04-29T05:57:10.197Z,8.23
2023-04-29T07:02:46.390Z,7.15
2023-04-29T07:46:55.679Z,6.93
2023-04-29T08:12:35.993Z,10.50
2023-04-29T08:58:06.780Z,9.50
2023-04-29T09:22:48.185Z,7.63
2023-04-29T09:27:49.945Z,7.05
2023-04-29T09:33:09.799Z,16.30
2023-04-29T09:38:17.204Z,6.38
2023-04-29T09:43:19.357Z,8.93
2023-04-29T09:48:20.900Z,7.78
2023-04-29T09:53:48.084Z,7.38
2023-04-29T09:58:49.667Z,6.57
2023-04-29T10:03:53.971Z,6.60
2023-04-29T10:08:55.978Z,8.57
2023-04-29T10:13:58.793Z,8.18
2023-04-29T10:19:04.294Z,5.78
2023-04-29T10:24:07.785Z,7.22
2023-04-29T10:29:11.260Z,8.07
2023-04-29T10:34:13.959Z,8.13
2023-04-29T10:39:43.861Z,7.38
2023-04-29T10:45:17.146Z,7.57
2023-04-29T10:50:19.129Z,9.70
2023-04-29T10:55:20.937Z,9.00
2023-04-29T11:00:33.675Z,6.70
2023-04-29T11:05:41.900Z,4.97
2023-04-29T11:10:44.107Z,5.72
2023-04-29T11:15:45.692Z,4.50
2023-04-29T11:21:06.270Z,6.47
2023-04-29T11:26:08.112Z,5.43
2023-04-29T11:31:09.707Z,6.28
2023-04-29T11:36:11.527Z,4.95
2023-04-29T11:41:14.555Z,5.10
2023-04-29T11:46:16.782Z,8.50
2023-04-29T11:51:19.645Z,7.82
2023-04-29T11:56:25.837Z,7.68
2023-04-29T12:01:27.627Z,7.20
2023-04-29T12:06:30.248Z,8.45
2023-04-29T12:11:31.928Z,6.47
2023-04-29T12:16:34.610Z,5.35
2023-04-29T12:21:36.963Z,4.97
2023-04-29T12:26:40.202Z,6.15
2023-04-29T12:31:42.004Z,8.48
2023-04-29T12:36:44.301Z,3.45
2023-04-29T12:41:46.472Z,5.68
2023-04-29T12:46:48.001Z,8.38
2023-04-29T12:51:49.776Z,8.45
2023-04-29T12:56:52.219Z,7.38
2023-04-29T13:01:53.943Z,5.40
2023-04-29T13:07:00.402Z,6.78
2023-04-29T13:12:02.793Z,5.60
2023-04-29T13:17:04.996Z,3.83
2023-04-29T13:22:07.232Z,2.88
2023-04-29T13:27:10.097Z,4.88
2023-04-29T13:32:14.200Z,2.63
2023-04-29T13:37:19.519Z,5.35
2023-04-29T13:42:26.268Z,2.72
2023-04-29T13:47:30.447Z,1.65
2023-04-29T13:53:23.612Z,3.08
2023-04-29T13:58:40.974Z,4.18
2023-04-29T14:03:24.321Z,1.40
2023-04-29T14:08:26.153Z,2.40
2023-04-29T14:13:27.682Z,4.75
2023-04-29T14:18:30.522Z,2.55
2023-04-29T14:23:32.117Z,3.70
2023-04-29T14:28:33.739Z,2.10
2023-04-29T14:33:35.798Z,2.80
2023-04-29T14:38:37.323Z,1.75
2023-04-29T14:43:39.164Z,2.15
2023-04-29T14:48:40.772Z,2.22
2023-04-29T14:53:43.037Z,1.75
2023-04-29T14:58:44.593Z,3.60
2023-04-29T15:03:46.495Z,2.42
2023-04-29T15:08:48.319Z,2.03
2023-04-29T15:13:50.024Z,1.95
2023-04-29T15:18:54.109Z,2.30
2023-04-29T15:23:55.794Z,1.63
2023-04-29T15:28:57.374Z,3.42
2023-04-29T15:33:59.115Z,3.05
2023-04-29T15:39:00.896Z,2.17
2023-04-29T15:44:07.280Z,3.03
2023-04-29T15:49:08.881Z,2.08
2023-04-29T15:54:10.539Z,2.53
2023-04-29T15:59:12.311Z,1.98
2023-04-29T16:04:13.854Z,1.20
2023-04-29T16:09:15.758Z,2.60
2023-04-29T16:14:17.315Z,1.73
2023-04-29T16:19:18.821Z,1.13
2023-04-29T16:24:20.862Z,1.25
2023-04-29T16:29:23.132Z,5.28
2023-04-29T16:34:28.199Z,1.95
2023-04-29T16:39:29.719Z,2.53
2023-04-29T16:44:31.414Z,3.80
2023-04-29T16:49:33.184Z,2.80
2023-04-29T16:54:36.948Z,3.33
2023-04-29T16:59:38.656Z,3.45
2023-04-29T17:04:40.588Z,1.88
2023-04-29T17:09:42.269Z,1.40
2023-04-29T17:14:44.386Z,2.25
2023-04-29T17:19:49.994Z,1.85
2023-04-29T17:24:51.728Z,1.88
2023-04-29T17:29:53.584Z,2.17
2023-04-29T17:34:56.755Z,3.40
2023-04-29T17:39:58.548Z,4.60
2023-04-29T17:45:00.252Z,2.20
2023-04-29T17:50:02.753Z,2.05
2023-04-29T17:55:04.906Z,4.07
2023-04-29T18:00:07.572Z,5.03
2023-04-29T18:05:09.431Z,4.65
2023-04-29T18:10:11.185Z,4.05
2023-04-29T18:15:16.451Z,2.50
2023-04-29T18:20:18.954Z,2.40
2023-04-29T18:25:20.894Z,2.83
2023-04-29T18:30:22.499Z,2.58
2023-04-29T18:35:24.260Z,4.85
2023-04-29T18:40:25.909Z,5.07
2023-04-29T18:45:27.439Z,2.72
2023-04-29T18:50:29.057Z,2.10
2023-04-29T18:55:30.858Z,1.70
2023-04-29T19:00:32.449Z,2.05
2023-04-29T19:05:34.699Z,0.88
2023-04-29T19:10:36.406Z,4.45
2023-04-29T19:15:38.173Z,1.63
2023-04-29T19:20:40.943Z,1.48
2023-04-29T19:25:42.690Z,1.02
2023-04-29T19:30:44.275Z,7.88
2023-04-29T19:35:46.034Z,0.50
2023-04-29T19:40:47.687Z,0.60
2023-04-29T19:45:49.636Z,1.35
2023-04-29T19:50:51.240Z,3.33
2023-04-29T19:55:53.932Z,4.60
2023-04-29T20:00:55.805Z,4.68
2023-04-29T20:05:59.126Z,7.68
2023-04-29T20:11:00.829Z,4.50
2023-04-29T20:16:02.667Z,4.43
2023-04-29T20:21:04.306Z,0.77
2023-04-29T20:26:06.320Z,2.50
2023-04-29T20:31:08.492Z,1.13
2023-04-29T20:36:10.333Z,1.60
2023-04-29T20:41:11.863Z,1.00
2023-04-29T20:46:13.645Z,2.35
2023-04-29T20:51:15.585Z,3.38
2023-04-29T20:56:17.251Z,3.05
2023-04-29T21:01:22.116Z,1.45
2023-04-29T21:06:25.764Z,0.40
2023-04-29T21:11:27.304Z,6.15
2023-04-29T21:16:28.990Z,0.60
2023-04-29T21:21:31.686Z,1.23
2023-04-29T21:26:33.244Z,0.65
2023-04-29T21:31:35.066Z,0.63
2023-04-29T21:36:36.692Z,4.53
2023-04-29T21:41:39.294Z,0.55
2023-04-29T21:46:41.239Z,0.32
2023-04-29T21:51:43.118Z,0.50
2023-04-29T21:56:44.682Z,2.17
2023-04-29T22:01:46.296Z,1.80
2023-04-29T22:06:47.977Z,0.70
2023-04-29T22:11:52.740Z,0.65
2023-04-29T22:16:54.419Z,0.82
2023-04-29T22:21:56.569Z,2.13
2023-04-29T22:26:58.219Z,4.82
2023-04-29T22:32:00.348Z,0.77
2023-04-29T22:37:02.248Z,0.38
2023-04-29T22:42:04.722Z,1.92
2023-04-29T22:47:06.691Z,1.85
2023-04-29T22:52:08.395Z,1.08
2023-04-29T22:57:10.183Z,1.02
2023-04-29T23:02:12.061Z,1.23
2023-04-29T23:07:13.676Z,3.85
2023-04-29T23:12:15.925Z,3.80
2023-04-29T23:17:17.801Z,2.20
2023-04-29T23:22:19.532Z,1.05
2023-04-29T23:27:21.243Z,0.70
2023-04-29T23:32:24.381Z,0.73
2023-04-29T23:37:26.242Z,5.05
2023-04-29T23:42:27.927Z,2.08
2023-04-29T23:47:29.509Z,1.90
2023-04-29T23:52:31.308Z,2.83
2023-04-29T23:57:33.147Z,1.60
